createdAt,value
2022-12-25T00:02:25.741Z,101084.50
2022-12-25T00:04:55.797Z,101083.66
2022-12-25T00:07:25.884Z,101081.72
2022-12-25T00:09:58.439Z,101080.03
2022-12-25T00:12:28.417Z,101086.31
2022-12-25T00:14:58.402Z,101085.19
2022-12-25T00:17:28.397Z,101081.81
2022-12-25T00:19:58.339Z,101079.31
2022-12-25T00:22:28.408Z,101088.81
2022-12-25T00:25:03.751Z,101079.06
2022-12-25T00:27:34.813Z,101082.56
2022-12-25T00:30:04.834Z,101082.78
2022-12-25T00:32:34.843Z,101088.38
2022-12-25T00:35:05.001Z,101094.63
2022-12-25T00:37:35.000Z,101096.44
2022-12-25T00:40:08.630Z,101103.53
2022-12-25T00:42:38.601Z,101108.94
2022-12-25T00:45:09.600Z,101105.63
2022-12-25T00:47:41.724Z,101108.13
2022-12-25T00:50:12.748Z,101104.22
2022-12-25T00:52:42.958Z,101102.13
2022-12-25T00:55:15.695Z,101111.72
2022-12-25T00:57:45.641Z,101108.41
2022-12-25T01:00:16.850Z,101112.97
2022-12-25T01:02:46.964Z,101119.25
2022-12-25T01:05:16.951Z,101128.00
2022-12-25T01:07:47.003Z,101133.94
2022-12-25T01:10:22.706Z,101135.59
2022-12-25T01:12:53.944Z,101144.44
2022-12-25T01:15:23.993Z,101140.81
2022-12-25T01:17:53.947Z,101135.53
2022-12-25T01:20:24.032Z,101146.50
2022-12-25T01:22:53.960Z,101135.94
2022-12-25T01:25:26.582Z,101144.97
2022-12-25T01:27:56.508Z,101151.66
2022-12-25T01:30:26.422Z,101151.38
2022-12-25T01:32:56.389Z,101154.72
2022-12-25T01:35:26.629Z,101166.13
2022-12-25T01:37:56.540Z,101165.84
2022-12-25T01:40:29.122Z,101173.91
2022-12-25T01:42:59.112Z,101169.59
2022-12-25T01:45:38.348Z,101173.06
2022-12-25T01:48:12.907Z,101170.88
2022-12-25T01:50:46.492Z,101172.69
2022-12-25T01:53:17.371Z,101173.78
2022-12-25T01:55:53.684Z,101177.22
2022-12-25T01:58:24.502Z,101169.97
2022-12-25T02:00:56.267Z,101175.91
2022-12-25T02:03:27.076Z,101182.34
2022-12-25T02:05:57.114Z,101180.69
2022-12-25T02:08:27.210Z,101179.13
2022-12-25T02:11:00.046Z,101188.47
2022-12-25T02:13:34.076Z,101189.75
2022-12-25T02:16:09.010Z,101191.19
2022-12-25T02:18:49.157Z,101193.56
2022-12-25T02:21:33.115Z,101188.16
2022-12-25T02:24:35.796Z,101192.91
2022-12-25T02:27:21.148Z,101188.91
2022-12-25T02:29:59.463Z,101198.06
2022-12-25T02:32:33.883Z,101193.34
2022-12-25T02:35:05.191Z,101192.25
2022-12-25T02:37:41.128Z,101201.00
2022-12-25T02:40:15.462Z,101201.97
2022-12-25T02:43:04.424Z,101197.78
2022-12-25T02:46:00.154Z,101200.81
2022-12-25T02:48:47.192Z,101205.66
2022-12-25T02:51:33.094Z,101204.97
2022-12-25T02:54:20.047Z,101213.28
2022-12-25T02:57:04.251Z,101203.44
2022-12-25T02:59:48.476Z,101207.03
2022-12-25T03:02:34.758Z,101207.75
2022-12-25T03:05:21.890Z,101194.66
2022-12-25T03:07:52.788Z,101202.72
2022-12-25T03:10:36.580Z,101210.28
2022-12-25T03:13:11.063Z,101212.56
2022-12-25T03:15:53.616Z,101210.25
2022-12-25T03:18:29.578Z,101216.72
2022-12-25T03:21:12.236Z,101221.75
2022-12-25T03:23:57.087Z,101215.19
2022-12-25T03:26:41.216Z,101209.47
2022-12-25T03:29:11.165Z,101203.72
2022-12-25T03:31:45.673Z,101213.44
2022-12-25T03:34:56.019Z,101216.53
2022-12-25T03:37:48.267Z,101221.81
2022-12-25T03:40:39.733Z,101222.06
2022-12-25T03:43:31.233Z,101234.34
2022-12-25T03:46:19.567Z,101232.22
2022-12-25T03:49:07.688Z,101245.41
2022-12-25T03:51:56.217Z,101239.03
2022-12-25T03:54:42.113Z,101232.34
2022-12-25T03:57:25.553Z,101239.28
2022-12-25T04:00:07.882Z,101242.19
2022-12-25T04:02:54.728Z,101240.16
2022-12-25T04:05:37.124Z,101249.97
2022-12-25T04:08:22.330Z,101255.88
2022-12-25T04:11:04.672Z,101255.53
2022-12-25T04:13:47.020Z,101257.34
2022-12-25T04:16:29.364Z,101258.56
2022-12-25T04:19:11.699Z,101268.03
2022-12-25T04:22:09.030Z,101258.91
2022-12-25T04:24:56.731Z,101266.59
2022-12-25T04:27:39.109Z,101271.13
2022-12-25T04:30:23.292Z,101269.94
2022-12-25T04:33:05.656Z,101268.69
2022-12-25T04:35:49.669Z,101259.94
2022-12-25T04:38:21.208Z,101261.00
2022-12-25T04:40:53.763Z,101266.59
2022-12-25T04:43:27.036Z,101264.53
2022-12-25T04:45:57.152Z,101268.59
2022-12-25T04:48:30.634Z,101275.28
2022-12-25T04:51:00.783Z,101276.97
2022-12-25T04:53:33.372Z,101276.50
2022-12-25T04:56:09.326Z,101281.34
2022-12-25T04:58:40.681Z,101277.28
2022-12-25T05:01:10.732Z,101283.75
2022-12-25T05:03:41.208Z,101283.88
2022-12-25T05:06:14.234Z,101291.94
2022-12-25T05:08:44.169Z,101287.50
2022-12-25T05:11:18.587Z,101283.31
2022-12-25T05:13:48.464Z,101278.03
2022-12-25T05:16:20.745Z,101273.59
2022-12-25T05:18:52.475Z,101267.34
2022-12-25T05:21:23.231Z,101261.25
2022-12-25T05:23:53.629Z,101268.78
2022-12-25T05:26:28.860Z,101278.75
2022-12-25T05:28:59.045Z,101272.88
2022-12-25T05:31:29.034Z,101265.94
2022-12-25T05:33:59.187Z,101260.53
2022-12-25T05:36:29.207Z,101266.53
2022-12-25T05:39:02.172Z,101268.06
2022-12-25T05:41:35.115Z,101274.19
2022-12-25T05:44:05.332Z,101265.44
2022-12-25T05:46:35.585Z,101264.59
2022-12-25T05:49:05.817Z,101266.78
2022-12-25T05:51:36.195Z,101270.63
2022-12-25T05:54:06.451Z,101273.03
2022-12-25T05:56:41.722Z,101273.28
2022-12-25T05:59:11.708Z,101272.09
2022-12-25T06:01:41.876Z,101266.25
2022-12-25T06:04:12.867Z,101273.88
2022-12-25T06:06:43.622Z,101269.00
2022-12-25T06:09:15.919Z,101265.63
2022-12-25T06:11:48.809Z,101252.47
2022-12-25T06:14:19.389Z,101251.97
2022-12-25T06:16:49.363Z,101260.72
2022-12-25T06:19:19.351Z,101249.81
2022-12-25T06:21:49.311Z,101253.75
2022-12-25T06:24:21.472Z,101245.72
2022-12-25T06:26:54.408Z,101237.81
2022-12-25T06:29:26.521Z,101238.91
2022-12-25T06:31:57.607Z,101250.78
2022-12-25T06:34:27.994Z,101256.19
2022-12-25T06:37:00.152Z,101266.94
2022-12-25T06:39:30.083Z,101264.06
2022-12-25T06:42:02.892Z,101265.63
2022-12-25T06:44:33.900Z,101262.25
2022-12-25T06:47:04.220Z,101267.53
2022-12-25T06:49:43.472Z,101264.19
2022-12-25T06:52:13.845Z,101260.97
2022-12-25T06:54:43.759Z,101252.09
2022-12-25T06:57:16.365Z,101251.50
2022-12-25T06:59:51.274Z,101267.31
2022-12-25T07:02:27.391Z,101268.63
2022-12-25T07:04:57.774Z,101271.38
2022-12-25T07:07:27.733Z,101272.09
2022-12-25T07:10:00.382Z,101270.41
2022-12-25T07:12:32.991Z,101281.91
2022-12-25T07:15:02.930Z,101278.69
2022-12-25T07:17:32.826Z,101282.25
2022-12-25T07:20:02.767Z,101291.34
2022-12-25T07:22:33.059Z,101301.28
2022-12-25T07:25:03.065Z,101303.44
2022-12-25T07:27:35.948Z,101315.88
2022-12-25T07:30:06.361Z,101321.63
2022-12-25T07:32:36.456Z,101321.25
2022-12-25T07:35:06.883Z,101324.97
2022-12-25T07:37:37.281Z,101324.63
2022-12-25T07:40:08.642Z,101325.44
2022-12-25T07:42:41.250Z,101327.13
2022-12-25T07:45:12.416Z,101318.50
2022-12-25T07:47:42.498Z,101327.59
2022-12-25T07:50:13.235Z,101320.66
2022-12-25T07:52:44.017Z,101324.06
2022-12-25T07:55:14.380Z,101320.53
2022-12-25T07:57:47.018Z,101301.63
2022-12-25T08:00:18.555Z,101305.81
2022-12-25T08:02:48.759Z,101311.69
2022-12-25T08:05:19.081Z,101308.09
2022-12-25T08:07:53.832Z,101310.00
2022-12-25T08:10:27.002Z,101319.34
2022-12-25T08:13:01.178Z,101318.25
2022-12-25T08:15:32.729Z,101321.13
2022-12-25T08:18:02.711Z,101325.56
2022-12-25T08:20:32.648Z,101327.34
2022-12-25T08:23:02.621Z,101323.88
2022-12-25T08:25:32.715Z,101327.22
2022-12-25T08:28:32.579Z,101324.94
2022-12-25T08:31:02.673Z,101337.75
2022-12-25T08:33:32.728Z,101335.97
2022-12-25T08:36:05.041Z,101328.78
2022-12-25T08:38:44.211Z,101311.81
2022-12-25T08:41:15.056Z,101309.78
2022-12-25T08:43:48.091Z,101319.00
2022-12-25T08:46:18.330Z,101317.44
2022-12-25T08:48:49.832Z,101318.56
2022-12-25T08:51:21.991Z,101318.09
2022-12-25T08:53:53.582Z,101313.06
2022-12-25T08:56:23.962Z,101315.13
2022-12-25T08:58:56.727Z,101302.88
2022-12-25T09:01:26.853Z,101299.03
2022-12-25T09:03:56.976Z,101298.84
2022-12-25T09:06:26.997Z,101284.44
2022-12-25T09:08:57.006Z,101270.56
2022-12-25T09:11:29.373Z,101266.25
2022-12-25T09:14:02.730Z,101271.50
2022-12-25T09:16:44.474Z,101260.34
2022-12-25T09:19:14.533Z,101265.28
2022-12-25T09:21:44.548Z,101263.72
2022-12-25T09:24:14.503Z,101263.47
2022-12-25T09:26:44.445Z,101256.03
2022-12-25T09:29:18.106Z,101254.38
2022-12-25T09:31:48.545Z,101253.16
2022-12-25T09:34:19.204Z,101249.31
2022-12-25T09:36:49.245Z,101255.03
2022-12-25T09:39:19.314Z,101260.06
2022-12-25T09:41:58.071Z,101254.41
2022-12-25T09:44:34.989Z,101250.44
2022-12-25T09:47:09.540Z,101250.44
2022-12-25T09:49:44.775Z,101249.72
2022-12-25T09:52:19.839Z,101256.34
2022-12-25T09:55:06.148Z,101254.53
2022-12-25T09:57:36.467Z,101262.47
2022-12-25T10:00:17.613Z,101260.06
2022-12-25T10:03:18.411Z,101263.56
2022-12-25T10:06:06.132Z,101259.97
2022-12-25T10:08:56.137Z,101258.66
2022-12-25T10:11:39.928Z,101263.03
2022-12-25T10:14:22.016Z,101264.84
2022-12-25T10:17:02.956Z,101274.31
2022-12-25T10:19:47.666Z,101289.13
2022-12-25T10:22:23.264Z,101270.19
2022-12-25T10:25:19.990Z,101278.94
2022-12-25T10:27:59.790Z,101273.78
2022-12-25T10:30:32.473Z,101269.94
2022-12-25T10:33:05.662Z,101271.50
2022-12-25T10:35:35.598Z,101253.78
2022-12-25T10:38:12.654Z,101249.09
2022-12-25T10:40:55.189Z,101236.16
2022-12-25T10:43:32.646Z,101240.59
2022-12-25T10:46:02.622Z,101233.63
2022-12-25T10:48:36.433Z,101225.34
2022-12-25T10:51:06.768Z,101213.50
2022-12-25T10:53:42.049Z,101225.94
2022-12-25T10:56:20.118Z,101215.28
2022-12-25T10:58:50.069Z,101224.03
2022-12-25T11:01:20.258Z,101228.34
2022-12-25T11:03:55.290Z,101218.03
2022-12-25T11:06:27.799Z,101232.19
2022-12-25T11:09:00.122Z,101217.44
2022-12-25T11:11:31.706Z,101224.66
2022-12-25T11:14:03.635Z,101227.88
2022-12-25T11:16:40.259Z,101231.94
2022-12-25T11:19:28.035Z,101229.03
2022-12-25T11:22:01.789Z,101240.91
2022-12-25T11:24:37.754Z,101245.22
2022-12-25T11:27:09.005Z,101225.19
2022-12-25T11:29:43.686Z,101219.81
2022-12-25T11:32:22.922Z,101219.09
2022-12-25T11:34:56.552Z,101214.19
2022-12-25T11:37:32.860Z,101213.59
2022-12-25T11:40:03.193Z,101225.81
2022-12-25T11:43:10.280Z,101229.16
2022-12-25T11:45:44.331Z,101221.97
2022-12-25T11:48:18.689Z,101193.34
2022-12-25T11:50:56.273Z,101180.53
2022-12-25T11:53:34.960Z,101173.84
2022-12-25T11:56:10.819Z,101161.75
2022-12-25T11:58:43.852Z,101145.81
2022-12-25T12:01:20.655Z,101131.75
2022-12-25T12:03:59.175Z,101105.94
2022-12-25T12:06:43.914Z,101107.38
2022-12-25T12:09:27.367Z,101104.22
2022-12-25T12:12:04.298Z,101109.88
2022-12-25T12:14:45.990Z,101112.38
2022-12-25T12:17:18.340Z,101104.47
2022-12-25T12:19:48.671Z,101111.44
2022-12-25T12:22:25.220Z,101116.44
2022-12-25T12:24:58.913Z,101129.38
2022-12-25T12:27:38.592Z,101130.34
2022-12-25T12:30:10.891Z,101139.22
2022-12-25T12:32:43.644Z,101126.53
2022-12-25T12:35:20.055Z,101115.22
2022-12-25T12:37:57.831Z,101108.38
2022-12-25T12:40:33.783Z,101107.28
2022-12-25T12:43:04.433Z,101101.03
2022-12-25T12:45:37.513Z,101106.44
2022-12-25T12:48:17.380Z,101108.38
2022-12-25T12:50:47.525Z,101105.59
2022-12-25T12:53:32.365Z,101106.88
2022-12-25T12:56:16.831Z,101105.06
2022-12-25T12:58:50.895Z,101091.63
2022-12-25T13:01:34.486Z,101093.31
2022-12-25T13:04:21.207Z,101090.91
2022-12-25T13:07:00.093Z,101086.09
2022-12-25T13:09:47.052Z,101095.81
2022-12-25T13:12:18.165Z,101084.28
2022-12-25T13:14:49.864Z,101096.50
2022-12-25T13:17:24.789Z,101101.91
2022-12-25T13:19:58.836Z,101099.84
2022-12-25T13:22:34.096Z,101085.97
2022-12-25T13:25:10.563Z,101095.16
2022-12-25T13:27:40.516Z,101082.94
2022-12-25T13:30:20.471Z,101080.72
2022-12-25T13:32:50.779Z,101088.50
2022-12-25T13:35:24.059Z,101085.31
2022-12-25T13:37:56.163Z,101084.19
2022-12-25T13:40:30.895Z,101073.50
2022-12-25T13:43:01.042Z,101062.00
2022-12-25T13:45:35.061Z,101061.16
2022-12-25T13:48:17.206Z,101054.22
2022-12-25T13:50:59.914Z,101048.66
2022-12-25T13:53:30.029Z,101031.03
2022-12-25T13:56:02.775Z,101037.41
2022-12-25T13:58:37.278Z,101058.75
2022-12-25T14:01:07.817Z,101051.97
2022-12-25T14:03:42.872Z,101039.34
2022-12-25T14:06:21.296Z,101031.69
2022-12-25T14:08:52.016Z,101028.78
2022-12-25T14:11:26.789Z,101020.88
2022-12-25T14:14:00.427Z,101007.81
2022-12-25T14:16:31.064Z,101007.81
2022-12-25T14:19:03.005Z,101010.72
2022-12-25T14:21:36.019Z,101014.59
2022-12-25T14:24:06.353Z,101030.69
2022-12-25T14:26:39.034Z,101034.81
2022-12-25T14:29:17.159Z,101027.88
2022-12-25T14:31:48.820Z,101035.38
2022-12-25T14:34:21.572Z,101031.38
2022-12-25T14:36:53.331Z,101031.50
2022-12-25T14:39:31.020Z,101036.41
2022-12-25T14:42:22.685Z,101023.34
2022-12-25T14:45:04.245Z,101038.88
2022-12-25T14:47:35.283Z,101029.72
2022-12-25T14:50:16.972Z,101018.91
2022-12-25T14:52:48.243Z,101008.91
2022-12-25T14:55:23.580Z,101009.75
2022-12-25T14:58:24.728Z,101006.28
2022-12-25T15:01:23.643Z,100991.13
2022-12-25T15:03:53.942Z,100972.81
2022-12-25T15:06:25.548Z,100970.44
2022-12-25T15:09:00.893Z,100969.72
2022-12-25T15:11:31.568Z,100974.03
2022-12-25T15:14:04.200Z,100971.13
2022-12-25T15:16:42.366Z,100972.94
2022-12-25T15:19:24.903Z,100975.56
2022-12-25T15:21:55.985Z,100962.94
2022-12-25T15:24:25.970Z,100946.69
2022-12-25T15:26:55.984Z,100968.75
2022-12-25T15:32:21.265Z,100970.88
2022-12-25T15:34:52.942Z,100961.84
2022-12-25T15:37:22.910Z,100953.53
2022-12-25T15:39:53.661Z,100964.09
2022-12-25T15:42:26.356Z,100971.75
2022-12-25T15:44:58.995Z,100966.84
2022-12-25T15:47:28.943Z,100976.81
2022-12-25T15:49:58.972Z,100967.00
2022-12-25T15:52:29.053Z,100958.81
2022-12-25T15:54:59.088Z,100946.34
2022-12-25T15:57:30.742Z,100932.59
2022-12-25T16:00:03.554Z,100936.50
2022-12-25T16:02:42.012Z,100931.91
2022-12-25T16:05:12.511Z,100931.91
2022-12-25T16:07:43.308Z,100934.16
2022-12-25T16:10:19.580Z,100931.50
2022-12-25T16:12:49.813Z,100941.38
2022-12-25T16:15:23.772Z,100926.09
2022-12-25T16:17:58.153Z,100910.94
2022-12-25T16:20:28.671Z,100900.09
2022-12-25T16:22:58.932Z,100900.81
2022-12-25T16:25:29.113Z,100894.69
2022-12-25T16:27:59.208Z,100893.03
2022-12-25T16:30:31.919Z,100893.84
2022-12-25T16:33:02.344Z,100899.84
2022-12-25T16:35:32.558Z,100899.69
2022-12-25T16:38:03.541Z,100905.53
2022-12-25T16:40:34.789Z,100888.56
2022-12-25T16:43:04.787Z,100895.56
2022-12-25T16:45:40.545Z,100888.47
2022-12-25T16:48:12.665Z,100893.03
2022-12-25T16:50:43.425Z,100878.84
2022-12-25T16:53:13.820Z,100864.81
2022-12-25T16:55:43.936Z,100862.44
2022-12-25T16:58:13.895Z,100846.88
2022-12-25T17:00:49.401Z,100840.50
2022-12-25T17:03:20.281Z,100847.16
2022-12-25T17:05:50.327Z,100839.78
2022-12-25T17:08:20.336Z,100820.19
2022-12-25T17:10:52.641Z,100810.75
2022-12-25T17:13:22.625Z,100794.06
2022-12-25T17:15:55.211Z,100795.47
2022-12-25T17:18:25.307Z,100796.44
2022-12-25T17:20:56.401Z,100800.06
2022-12-25T17:23:26.516Z,100791.59
2022-12-25T17:25:56.466Z,100779.91
2022-12-25T17:28:26.416Z,100788.22
2022-12-25T17:31:04.931Z,100792.97
2022-12-25T17:33:35.182Z,100796.72
2022-12-25T17:36:06.017Z,100793.38
2022-12-25T17:38:39.524Z,100793.78
2022-12-25T17:41:11.998Z,100788.09
2022-12-25T17:43:44.342Z,100776.28
2022-12-25T17:46:18.943Z,100771.84
2022-12-25T17:48:51.107Z,100774.34
2022-12-25T17:51:24.024Z,100786.44
2022-12-25T17:53:55.839Z,100784.50
2022-12-25T17:56:27.610Z,100784.75
2022-12-25T17:59:06.846Z,100769.91
2022-12-25T18:01:40.509Z,100755.00
2022-12-25T18:04:25.039Z,100743.47
2022-12-25T18:06:58.017Z,100722.72
2022-12-25T18:09:48.258Z,100725.38
2022-12-25T18:12:18.299Z,100723.41
2022-12-25T18:14:48.313Z,100712.31
2022-12-25T18:17:21.136Z,100711.34
2022-12-25T18:19:53.198Z,100701.59
2022-12-25T18:22:23.221Z,100699.34
2022-12-25T18:24:53.157Z,100695.91
2022-12-25T18:27:26.686Z,100697.44
2022-12-25T18:29:56.746Z,100696.91
2022-12-25T18:32:29.396Z,100703.13
2022-12-25T18:34:59.343Z,100699.50
2022-12-25T18:37:34.383Z,100690.59
2022-12-25T18:40:09.365Z,100683.66
2022-12-25T18:42:43.343Z,100684.03
2022-12-25T18:45:15.890Z,100674.75
2022-12-25T18:47:50.435Z,100685.03
2022-12-25T18:50:20.366Z,100693.69
2022-12-25T18:52:51.713Z,100688.41
2022-12-25T18:55:23.179Z,100673.03
2022-12-25T18:57:53.174Z,100669.41
2022-12-25T19:00:24.352Z,100650.13
2022-12-25T19:02:59.401Z,100641.47
2022-12-25T19:05:29.776Z,100631.34
2022-12-25T19:08:00.062Z,100628.41
2022-12-25T19:10:30.104Z,100616.31
2022-12-25T19:13:00.174Z,100611.72
2022-12-25T19:15:30.374Z,100607.69
2022-12-25T19:18:02.993Z,100622.00
2022-12-25T19:20:33.059Z,100614.81
2022-12-25T19:23:03.106Z,100625.06
2022-12-25T19:25:34.085Z,100608.25
2022-12-25T19:28:04.276Z,100596.88
2022-12-25T19:30:34.291Z,100594.59
2022-12-25T19:33:33.818Z,100595.84
2022-12-25T19:36:19.440Z,100585.75
2022-12-25T19:38:50.558Z,100589.31
2022-12-25T19:41:22.027Z,100574.28
2022-12-25T19:43:52.578Z,100568.78
2022-12-25T19:46:25.095Z,100571.53
2022-12-25T19:48:59.226Z,100556.47
2022-12-25T19:51:30.767Z,100572.50
2022-12-25T19:54:00.890Z,100563.56
2022-12-25T19:56:32.908Z,100555.09
2022-12-25T19:59:03.594Z,100559.25
2022-12-25T20:01:33.918Z,100538.88
2022-12-25T20:04:08.797Z,100545.22
2022-12-25T20:06:40.882Z,100541.06
2022-12-25T20:09:15.309Z,100532.34
2022-12-25T20:11:46.253Z,100540.53
2022-12-25T20:14:18.143Z,100535.34
2022-12-25T20:16:48.677Z,100526.19
2022-12-25T20:19:21.381Z,100523.28
2022-12-25T20:21:51.436Z,100529.22
2022-12-25T20:24:21.515Z,100522.06
2022-12-25T20:26:57.077Z,100525.44
2022-12-25T20:29:28.882Z,100510.56
2022-12-25T20:31:59.030Z,100519.50
2022-12-25T20:34:31.697Z,100510.28
2022-12-25T20:37:01.716Z,100519.13
2022-12-25T20:39:31.937Z,100511.47
2022-12-25T20:42:02.003Z,100497.44
2022-12-25T20:44:32.014Z,100496.94
2022-12-25T20:47:03.590Z,100502.13
2022-12-25T20:49:37.033Z,100483.66
2022-12-25T20:52:08.516Z,100502.59
2022-12-25T20:54:38.513Z,100487.66
2022-12-25T20:57:08.710Z,100479.75
2022-12-25T20:59:40.124Z,100480.44
2022-12-25T21:02:34.905Z,100481.09
2022-12-25T21:05:05.055Z,100495.66
2022-12-25T21:07:35.143Z,100484.47
2022-12-25T21:10:05.091Z,100471.06
2022-12-25T21:12:35.218Z,100471.34
2022-12-25T21:15:08.911Z,100465.72
2022-12-25T21:17:41.708Z,100463.50
2022-12-25T21:20:14.788Z,100465.56
2022-12-25T21:23:05.109Z,100452.09
2022-12-25T21:25:35.106Z,100458.53
2022-12-25T21:28:04.993Z,100461.03
2022-12-25T21:30:35.071Z,100450.84
2022-12-25T21:33:17.705Z,100456.50
2022-12-25T21:35:50.614Z,100450.19
2022-12-25T21:38:20.832Z,100463.22
2022-12-25T21:40:51.748Z,100459.59
2022-12-25T21:43:22.097Z,100454.59
2022-12-25T21:45:52.224Z,100446.97
2022-12-25T21:48:22.198Z,100438.97
2022-12-25T21:51:07.233Z,100444.03
2022-12-25T21:53:37.211Z,100445.84
2022-12-25T21:56:07.701Z,100432.31
2022-12-25T21:58:47.254Z,100440.03
2022-12-25T22:01:28.102Z,100431.63
2022-12-25T22:04:08.748Z,100430.22
2022-12-25T22:06:54.102Z,100427.78
2022-12-25T22:09:26.197Z,100434.75
2022-12-25T22:12:11.304Z,100440.28
2022-12-25T22:14:56.825Z,100435.00
2022-12-25T22:17:40.910Z,100429.47
2022-12-25T22:20:13.960Z,100434.06
2022-12-25T22:22:47.018Z,100438.47
2022-12-25T22:25:18.476Z,100441.19
2022-12-25T22:27:49.659Z,100437.25
2022-12-25T22:30:21.528Z,100443.59
2022-12-25T22:32:52.392Z,100452.19
2022-12-25T22:35:24.373Z,100437.88
2022-12-25T22:37:57.491Z,100435.28
2022-12-25T22:40:27.417Z,100434.53
2022-12-25T22:42:57.930Z,100429.59
2022-12-25T22:45:27.911Z,100425.03
2022-12-25T22:47:57.818Z,100424.81
2022-12-25T22:50:27.888Z,100414.25
2022-12-25T22:53:00.436Z,100417.34
2022-12-25T22:55:30.378Z,100410.78
2022-12-25T22:58:00.321Z,100413.31
2022-12-25T23:00:30.267Z,100407.09
2022-12-25T23:03:00.408Z,100393.28
2022-12-25T23:05:30.436Z,100397.09
2022-12-25T23:08:02.968Z,100411.25
2022-12-25T23:10:33.008Z,100397.09
2022-12-25T23:13:15.337Z,100391.63
2022-12-25T23:15:48.283Z,100384.69
2022-12-25T23:18:31.002Z,100383.78
2022-12-25T23:21:15.538Z,100378.38
2022-12-25T23:24:00.581Z,100387.59
2022-12-25T23:26:30.596Z,100385.19
2022-12-25T23:29:14.032Z,100386.75
2022-12-25T23:31:44.854Z,100385.19
2022-12-25T23:34:14.752Z,100385.44
2022-12-25T23:36:44.651Z,100375.34
2022-12-25T23:39:17.287Z,100381.56
2022-12-25T23:41:47.417Z,100388.31
2022-12-25T23:44:17.841Z,100375.25
2022-12-25T23:46:52.368Z,100368.28
2022-12-25T23:49:23.995Z,100373.63
2022-12-25T23:51:54.647Z,100386.84
2022-12-25T23:54:29.545Z,100377.09
2022-12-25T23:57:00.835Z,100386.81
2022-12-25T23:59:39.546Z,100382.34
